Time;durP1;ratioP1;P1;durP2;ratioP2;P2;SDS_P1;SDS_P2;PMS_P1;PMS_P2;Temp;Humidity;BMP_temperature;BMP_pressure;BME280_temperature;BME280_humidity;BME280_pressure;Samples;Min_cycle;Max_cycle;Signal;HPM_P1;HPM_P2
2020/12/16 00:01:30;;;;;;;91.93;44.33;;;9.50;99.90;;;;;;5092402;28;20460;-83
2020/12/16 00:03:55;;;;;;;99.32;42.88;;;9.40;99.90;;;;;;5089304;28;20090;-83
2020/12/16 00:06:21;;;;;;;92.70;45.15;;;9.50;99.90;;;;;;5094624;28;20032;-83
2020/12/16 00:08:47;;;;;;;96.18;42.50;;;9.50;99.90;;;;;;5093844;28;20059;-83
2020/12/16 00:11:12;;;;;;;89.68;42.22;;;9.50;99.90;;;;;;5086602;28;20034;-83
2020/12/16 00:13:38;;;;;;;106.07;43.53;;;9.50;99.90;;;;;;5094288;28;20059;-83
2020/12/16 00:16:04;;;;;;;87.85;41.90;;;9.40;99.90;;;;;;5092750;28;20065;-83
2020/12/16 00:18:29;;;;;;;95.13;42.00;;;9.50;99.90;;;;;;5112067;28;20040;-83
2020/12/16 00:20:55;;;;;;;88.68;40.58;;;9.40;99.90;;;;;;5094169;28;20043;-83
2020/12/16 00:23:20;;;;;;;91.93;43.20;;;9.40;99.90;;;;;;5091572;28;20030;-83
2020/12/16 00:25:46;;;;;;;103.40;44.05;;;9.40;99.90;;;;;;5093807;28;20050;-83
2020/12/16 00:28:12;;;;;;;97.53;42.88;;;9.40;99.90;;;;;;5093749;28;20476;-84
2020/12/16 00:30:38;;;;;;;103.47;42.15;;;9.40;99.90;;;;;;5089328;28;20032;-83
2020/12/16 00:33:04;;;;;;;95.57;42.17;;;9.40;99.90;;;;;;5088904;28;20019;-83
2020/12/16 00:35:29;;;;;;;97.00;42.22;;;9.40;99.90;;;;;;5091938;28;20499;-83
2020/12/16 00:37:57;;;;;;;89.00;42.25;;;9.40;99.90;;;;;;5093881;28;20415;-83
2020/12/16 00:40:23;;;;;;;100.05;43.40;;;9.40;99.90;;;;;;5091808;28;20035;-83
2020/12/16 00:42:50;;;;;;;99.40;45.13;;;9.40;99.90;;;;;;5111920;28;20023;-83
2020/12/16 00:45:16;;;;;;;98.63;45.20;;;9.40;99.90;;;;;;5086763;28;20024;-83
2020/12/16 00:47:42;;;;;;;98.65;43.88;;;9.40;99.90;;;;;;5110767;28;20028;-83
2020/12/16 00:50:09;;;;;;;105.00;46.25;;;9.40;99.90;;;;;;5093462;28;20365;-83
2020/12/16 00:52:34;;;;;;;113.25;44.70;;;9.40;99.90;;;;;;5092582;28;20028;-83
2020/12/16 00:55:00;;;;;;;97.75;44.28;;;9.40;99.90;;;;;;5093116;28;20034;-83
2020/12/16 00:57:26;;;;;;;95.70;45.85;;;9.40;99.90;;;;;;5092655;28;20113;-83
2020/12/16 00:59:51;;;;;;;87.28;42.67;;;9.40;99.90;;;;;;5093005;28;20024;-83
2020/12/16 01:02:17;;;;;;;100.82;45.28;;;9.40;99.90;;;;;;5093722;28;20483;-83
2020/12/16 01:04:43;;;;;;;100.65;42.90;;;9.40;99.90;;;;;;5110172;28;20012;-83
2020/12/16 01:07:09;;;;;;;103.40;45.03;;;9.40;99.90;;;;;;5099997;28;20123;-83
2020/12/16 01:09:34;;;;;;;92.50;43.28;;;9.40;99.90;;;;;;5092706;28;20432;-83
2020/12/16 01:12:00;;;;;;;103.38;44.50;;;9.40;99.90;;;;;;5093310;28;20458;-83
2020/12/16 01:14:26;;;;;;;104.25;44.78;;;9.40;99.90;;;;;;5093081;28;20162;-82
2020/12/16 01:16:52;;;;;;;106.78;47.72;;;9.40;99.90;;;;;;5093029;28;20024;-83
2020/12/16 01:19:17;;;;;;;104.38;47.35;;;9.40;99.90;;;;;;5111060;28;20030;-82
2020/12/16 01:21:43;;;;;;;95.53;45.63;;;9.40;99.90;;;;;;5110312;28;20027;-83
2020/12/16 01:24:09;;;;;;;104.10;44.63;;;9.50;99.90;;;;;;5092813;28;20055;-83
2020/12/16 01:26:46;;;;;;;103.50;46.22;;;9.50;99.90;;;;;;5092045;28;20066;-83
2020/12/16 01:29:16;;;;;;;100.85;44.58;;;9.40;99.90;;;;;;5107581;28;20408;-83
2020/12/16 01:31:43;;;;;;;98.43;44.75;;;9.50;99.90;;;;;;5092467;28;20356;-83
2020/12/16 01:34:10;;;;;;;86.70;41.10;;;9.60;99.90;;;;;;5090533;28;20032;-83
2020/12/16 01:36:42;;;;;;;90.50;42.75;;;9.50;99.90;;;;;;5092738;28;20460;-82
2020/12/16 01:39:09;;;;;;;79.85;42.50;;;9.60;99.90;;;;;;5090220;28;20039;-83
2020/12/16 01:41:39;;;;;;;90.07;39.08;;;9.50;99.90;;;;;;5092254;28;20016;-83
2020/12/16 01:44:16;;;;;;;76.50;38.45;;;9.60;99.90;;;;;;5092284;28;20039;-83
2020/12/16 01:46:54;;;;;;;72.18;38.03;;;9.60;99.90;;;;;;5081348;28;20046;-83
2020/12/16 01:49:23;;;;;;;79.55;34.72;;;9.60;99.90;;;;;;5092089;28;20061;-83
2020/12/16 01:51:53;;;;;;;67.93;33.63;;;9.60;99.90;;;;;;5091262;28;20392;-83
2020/12/16 01:54:21;;;;;;;70.75;34.97;;;9.70;99.90;;;;;;5092137;28;20072;-83
2020/12/16 01:56:50;;;;;;;65.68;33.33;;;9.80;99.90;;;;;;5092141;28;20019;-83
2020/12/16 01:59:17;;;;;;;71.85;32.75;;;9.80;99.90;;;;;;5091139;28;20019;-82
2020/12/16 02:01:45;;;;;;;71.55;31.75;;;9.80;99.90;;;;;;5107844;28;20024;-83
2020/12/16 02:04:12;;;;;;;71.32;32.30;;;9.80;99.90;;;;;;5088857;28;20438;-82
2020/12/16 02:06:40;;;;;;;67.95;33.08;;;9.80;99.90;;;;;;5091840;28;20387;-83
2020/12/16 02:09:08;;;;;;;75.63;31.38;;;9.80;99.90;;;;;;5091621;28;20384;-83
2020/12/16 02:11:35;;;;;;;62.88;30.33;;;9.70;99.90;;;;;;5091776;28;20061;-83
2020/12/16 02:14:06;;;;;;;63.08;30.67;;;9.70;99.90;;;;;;5091716;28;20035;-82
2020/12/16 02:16:31;;;;;;;67.13;30.83;;;9.70;99.90;;;;;;5091810;28;20422;-83
2020/12/16 02:18:57;;;;;;;58.60;30.45;;;9.80;99.90;;;;;;5091149;28;20169;-83
2020/12/16 02:21:23;;;;;;;61.22;31.15;;;9.80;99.90;;;;;;5103550;28;20030;-83
2020/12/16 02:24:01;;;;;;;72.30;32.45;;;9.70;99.90;;;;;;5081367;28;20016;-83
2020/12/16 02:26:29;;;;;;;58.10;30.13;;;9.80;99.90;;;;;;5091626;28;20384;-83
2020/12/16 02:28:54;;;;;;;63.55;30.88;;;9.80;99.90;;;;;;5109437;28;20023;-83
2020/12/16 02:31:20;;;;;;;59.55;30.42;;;9.80;99.90;;;;;;5091996;28;20030;-83
2020/12/16 02:33:46;;;;;;;59.90;30.77;;;9.80;99.90;;;;;;5046250;28;20029;-83
2020/12/16 02:36:12;;;;;;;69.53;31.25;;;9.80;99.90;;;;;;5022032;28;20037;-83
2020/12/16 02:38:45;;;;;;;79.03;29.95;;;9.70;99.90;;;;;;5029583;28;20098;-83
2020/12/16 02:41:10;;;;;;;63.47;30.38;;;9.70;99.90;;;;;;5029354;28;20029;-83
2020/12/16 02:43:36;;;;;;;63.47;31.65;;;9.70;99.90;;;;;;5029505;28;20025;-83
2020/12/16 02:46:01;;;;;;;71.38;32.60;;;9.70;99.90;;;;;;5045162;28;20485;-83
2020/12/16 02:48:27;;;;;;;60.75;31.83;;;9.60;99.90;;;;;;5029658;28;20033;-83
2020/12/16 02:50:53;;;;;;;70.20;32.75;;;9.60;99.90;;;;;;5027068;28;20468;-82
2020/12/16 02:53:19;;;;;;;65.38;30.80;;;9.70;99.90;;;;;;5021233;28;20368;-83
2020/12/16 02:55:45;;;;;;;67.50;32.55;;;9.70;99.90;;;;;;5026216;28;20023;-83
2020/12/16 02:58:10;;;;;;;76.93;30.65;;;9.70;99.90;;;;;;5030516;28;20045;-83
2020/12/16 03:00:36;;;;;;;70.03;32.38;;;9.70;99.90;;;;;;5024489;28;20080;-83
2020/12/16 03:03:01;;;;;;;71.65;32.40;;;9.70;99.90;;;;;;5027011;28;20025;-83
2020/12/16 03:05:27;;;;;;;66.53;30.05;;;9.70;99.90;;;;;;5038035;28;20086;-83
2020/12/16 03:07:52;;;;;;;63.45;31.33;;;9.70;99.90;;;;;;5046675;28;20045;-83
2020/12/16 03:10:18;;;;;;;66.20;31.35;;;9.70;99.90;;;;;;5035259;28;20029;-83
2020/12/16 03:12:45;;;;;;;65.68;29.70;;;9.70;99.90;;;;;;5095336;28;20034;-83
2020/12/16 03:15:12;;;;;;;60.80;29.02;;;9.70;99.90;;;;;;5092627;28;20020;-83
2020/12/16 03:17:37;;;;;;;63.38;29.67;;;9.60;99.90;;;;;;5095242;28;20479;-82
2020/12/16 03:20:03;;;;;;;65.20;30.02;;;9.60;99.90;;;;;;5094421;28;20031;-83
2020/12/16 03:22:29;;;;;;;69.22;29.95;;;9.50;99.90;;;;;;5095073;28;20403;-83
2020/12/16 03:24:55;;;;;;;63.38;28.45;;;9.50;99.90;;;;;;5089050;28;20056;-83
2020/12/16 03:27:21;;;;;;;68.20;29.35;;;9.50;99.90;;;;;;5087444;28;20028;-83
2020/12/16 03:29:47;;;;;;;56.97;29.23;;;9.50;99.90;;;;;;5088289;28;20020;-84
2020/12/16 03:32:13;;;;;;;53.70;27.90;;;9.50;99.90;;;;;;5113120;28;20521;-83
2020/12/16 03:34:38;;;;;;;64.00;31.13;;;9.50;99.90;;;;;;5094355;28;20036;-83
2020/12/16 03:37:04;;;;;;;66.90;30.35;;;9.40;99.90;;;;;;5113307;28;20128;-83
2020/12/16 03:39:30;;;;;;;63.58;29.90;;;9.50;99.90;;;;;;5095915;28;20035;-83
2020/12/16 03:41:55;;;;;;;62.30;28.45;;;9.40;99.90;;;;;;5095950;28;20028;-83
2020/12/16 03:44:21;;;;;;;62.53;30.08;;;9.40;99.90;;;;;;5100738;28;20041;-84
2020/12/16 03:46:50;;;;;;;70.32;34.03;;;9.40;99.90;;;;;;5120127;28;20042;-83
2020/12/16 03:49:16;;;;;;;63.88;30.63;;;9.40;99.90;;;;;;5117985;28;20035;-84
2020/12/16 03:51:42;;;;;;;70.32;33.35;;;9.30;99.90;;;;;;5115222;28;20027;-83
2020/12/16 03:54:07;;;;;;;77.32;32.45;;;9.30;99.90;;;;;;5117749;28;20008;-83
2020/12/16 03:56:33;;;;;;;75.90;32.90;;;9.30;99.90;;;;;;5131245;27;20031;-83
2020/12/16 03:58:59;;;;;;;77.43;33.92;;;9.30;99.90;;;;;;5110637;28;20020;-83
2020/12/16 04:01:24;;;;;;;68.70;32.28;;;9.40;99.90;;;;;;5093187;28;20104;-83
2020/12/16 04:03:50;;;;;;;68.28;33.42;;;9.30;99.90;;;;;;5097257;28;20023;-83
2020/12/16 04:06:15;;;;;;;65.40;33.17;;;9.30;99.90;;;;;;5093067;28;20476;-83
2020/12/16 04:08:43;;;;;;;71.13;33.88;;;9.20;99.90;;;;;;5094389;28;20031;-83
2020/12/16 04:11:16;;;;;;;64.53;32.58;;;9.20;99.90;;;;;;5094591;28;20028;-83
2020/12/16 04:13:43;;;;;;;71.82;35.63;;;9.20;99.90;;;;;;5094619;28;20132;-83
2020/12/16 04:16:13;;;;;;;68.72;32.78;;;9.20;99.90;;;;;;5093993;28;20492;-83
2020/12/16 04:18:39;;;;;;;64.13;32.08;;;9.10;99.90;;;;;;5094129;28;20020;-83
2020/12/16 04:21:06;;;;;;;64.57;30.75;;;9.20;99.90;;;;;;5086702;28;20031;-83
2020/12/16 04:23:31;;;;;;;67.18;30.48;;;9.10;99.90;;;;;;5111335;28;20022;-83
2020/12/16 04:25:57;;;;;;;61.72;29.55;;;9.20;99.90;;;;;;5111493;28;20035;-83
2020/12/16 04:28:22;;;;;;;62.17;28.63;;;9.10;99.90;;;;;;5094061;28;20135;-83
2020/12/16 04:30:48;;;;;;;58.17;27.23;;;9.20;99.90;;;;;;5093458;28;20026;-83
2020/12/16 04:33:14;;;;;;;61.72;28.40;;;9.20;99.90;;;;;;5091114;28;20028;-83
2020/12/16 04:35:39;;;;;;;57.00;28.38;;;9.20;99.90;;;;;;5091720;28;20066;-83
2020/12/16 04:38:05;;;;;;;65.05;29.38;;;9.20;99.90;;;;;;5111872;28;20059;-83
2020/12/16 04:40:31;;;;;;;67.38;28.58;;;9.20;99.90;;;;;;5093895;28;20015;-83
2020/12/16 04:43:21;;;;;;;55.03;27.67;;;9.10;99.90;;;;;;5093786;28;20023;-83
2020/12/16 04:45:48;;;;;;;54.75;28.27;;;9.10;99.90;;;;;;5080534;28;20099;-83
2020/12/16 04:48:15;;;;;;;59.75;28.63;;;9.00;99.90;;;;;;5093127;28;20046;-83
2020/12/16 04:50:43;;;;;;;59.97;27.85;;;9.00;99.90;;;;;;5092914;28;20024;-83
2020/12/16 04:53:11;;;;;;;63.17;28.88;;;9.00;99.90;;;;;;5093345;28;20027;-83
2020/12/16 04:55:36;;;;;;;59.58;29.05;;;9.00;99.90;;;;;;5092940;28;20020;-83
2020/12/16 04:58:04;;;;;;;64.93;27.42;;;9.00;99.90;;;;;;5093157;28;20030;-83
2020/12/16 05:00:31;;;;;;;65.53;26.13;;;8.90;99.90;;;;;;5085028;28;20053;-83
2020/12/16 05:02:59;;;;;;;62.70;26.27;;;8.90;99.90;;;;;;5080642;28;20499;-83
2020/12/16 05:05:25;;;;;;;54.03;26.13;;;8.90;99.90;;;;;;5090376;28;20429;-84
2020/12/16 05:07:51;;;;;;;65.40;25.88;;;9.00;99.90;;;;;;5092533;28;20077;-83
2020/12/16 05:10:30;;;;;;;56.72;25.35;;;9.00;99.90;;;;;;5092905;28;20024;-84
2020/12/16 05:13:13;;;;;;;50.10;25.27;;;9.00;99.90;;;;;;5092866;28;20027;-83
2020/12/16 05:15:41;;;;;;;61.75;25.05;;;8.90;99.90;;;;;;5092737;28;20024;-84
2020/12/16 05:18:11;;;;;;;61.20;26.95;;;9.00;99.90;;;;;;5093666;28;20086;-84
2020/12/16 05:20:39;;;;;;;52.22;24.35;;;9.00;99.90;;;;;;5091810;28;20475;-83
2020/12/16 05:23:06;;;;;;;50.20;22.45;;;9.00;99.90;;;;;;5093479;28;20040;-83
2020/12/16 05:25:32;;;;;;;56.75;24.23;;;9.10;99.90;;;;;;5089579;28;20081;-83
2020/12/16 05:27:58;;;;;;;54.47;23.42;;;9.10;99.90;;;;;;5093298;28;20038;-83
2020/12/16 05:30:25;;;;;;;57.30;23.17;;;9.10;99.90;;;;;;5092342;28;20015;-83
2020/12/16 05:32:52;;;;;;;65.63;23.10;;;9.10;99.90;;;;;;5092110;28;20096;-83
2020/12/16 05:35:28;;;;;;;52.30;23.83;;;9.00;99.90;;;;;;5093147;28;20085;-83
2020/12/16 05:38:19;;;;;;;40.65;19.15;;;9.10;99.90;;;;;;5106897;28;20083;-83
2020/12/16 05:40:45;;;;;;;;;;;9.10;99.90;;;;;;5083038;28;20035;-84
2020/12/16 05:43:25;;;;;;;65.68;22.15;;;9.10;99.90;;;;;;5092092;28;19907;-83
2020/12/16 05:45:51;;;;;;;56.53;22.73;;;9.10;99.90;;;;;;5100429;28;20395;-83
2020/12/16 05:48:17;;;;;;;51.60;21.45;;;9.10;99.90;;;;;;5110877;28;20087;-82
2020/12/16 05:50:55;;;;;;;47.78;22.73;;;9.10;99.90;;;;;;5091745;28;20482;-82
2020/12/16 05:53:26;;;;;;;56.28;23.73;;;9.10;99.90;;;;;;5084091;28;20532;-82
2020/12/16 05:56:00;;;;;;;55.65;22.50;;;9.00;99.90;;;;;;5106829;28;20076;-83
2020/12/16 05:58:31;;;;;;;51.30;22.55;;;9.00;99.90;;;;;;5091942;28;20023;-83
2020/12/16 06:00:58;;;;;;;52.85;22.33;;;9.00;99.90;;;;;;5089812;28;20036;-83
2020/12/16 06:03:32;;;;;;;55.85;22.80;;;8.90;99.90;;;;;;5083736;28;20039;-83
2020/12/16 06:06:07;;;;;;;44.75;21.48;;;8.70;99.90;;;;;;5087573;28;20035;-83
2020/12/16 06:08:41;;;;;;;45.15;22.60;;;8.60;99.90;;;;;;5090815;28;20568;-82
2020/12/16 06:11:09;;;;;;;55.75;21.35;;;8.60;99.90;;;;;;5102607;28;20020;-83
2020/12/16 06:13:36;;;;;;;43.10;22.55;;;8.50;99.90;;;;;;5082229;28;20034;-83
2020/12/16 06:16:13;;;;;;;47.17;22.17;;;8.40;99.90;;;;;;5082823;28;20012;-83
2020/12/16 06:18:41;;;;;;;58.17;23.80;;;8.40;99.90;;;;;;5089756;28;20023;-83
2020/12/16 06:21:09;;;;;;;59.72;23.35;;;8.40;99.90;;;;;;5083020;28;20023;-83
2020/12/16 06:23:38;;;;;;;59.90;22.88;;;8.40;99.90;;;;;;5085485;28;20046;-83
2020/12/16 06:26:09;;;;;;;58.35;23.77;;;8.30;99.90;;;;;;5103896;28;20333;-83
2020/12/16 06:28:34;;;;;;;54.17;25.15;;;8.30;99.90;;;;;;5109464;28;20027;-82
2020/12/16 06:31:06;;;;;;;61.70;24.52;;;8.30;99.90;;;;;;5084145;28;20035;-83
2020/12/16 06:33:41;;;;;;;;;;;8.30;99.90;;;;;;5083663;28;20441;-83
2020/12/16 06:36:09;;;;;;;53.80;24.17;;;8.30;99.90;;;;;;5101082;28;19926;-83
2020/12/16 06:38:47;;;;;;;60.50;23.17;;;8.30;99.90;;;;;;5083546;28;20051;-82
2020/12/16 06:41:26;;;;;;;61.63;25.08;;;8.30;99.90;;;;;;5089756;28;20089;-82
2020/12/16 06:43:54;;;;;;;54.13;23.33;;;8.30;99.90;;;;;;5084232;28;20027;-83
2020/12/16 06:46:40;;;;;;;63.28;24.75;;;8.30;99.90;;;;;;5045656;28;20129;-83
2020/12/16 06:49:25;;;;;;;57.30;24.67;;;8.20;99.90;;;;;;5029480;28;20068;-83
2020/12/16 06:51:55;;;;;;;61.80;22.98;;;8.20;99.90;;;;;;5041917;28;20037;-83
2020/12/16 06:54:23;;;;;;;62.03;25.13;;;8.10;99.90;;;;;;5028869;28;20037;-83
2020/12/16 06:56:51;;;;;;;56.50;24.08;;;8.10;99.90;;;;;;5039489;28;20410;-83
2020/12/16 06:59:42;;;;;;;57.60;24.38;;;8.00;99.90;;;;;;5027827;28;20029;-83
2020/12/16 07:02:11;;;;;;;54.00;23.05;;;8.00;99.90;;;;;;5027467;28;20029;-83
2020/12/16 07:04:38;;;;;;;61.50;24.00;;;7.90;99.90;;;;;;5022574;28;20025;-83
2020/12/16 07:07:03;;;;;;;59.55;24.35;;;7.80;99.90;;;;;;5029265;28;20036;-82
2020/12/16 07:09:33;;;;;;;72.03;25.25;;;7.80;99.90;;;;;;5030788;28;20086;-84
2020/12/16 07:12:02;;;;;;;59.67;24.10;;;7.70;99.90;;;;;;5036129;28;20390;-82
2020/12/16 07:14:35;;;;;;;63.67;25.85;;;7.70;99.90;;;;;;5042138;28;20038;-82
2020/12/16 07:17:10;;;;;;;60.78;26.52;;;7.60;99.90;;;;;;5045917;28;20468;-81
2020/12/16 07:19:37;;;;;;;63.58;27.70;;;7.60;99.90;;;;;;5082189;28;20024;-82
2020/12/16 07:22:21;;;;;;;70.72;28.95;;;7.50;99.90;;;;;;5058667;28;20088;-82
2020/12/16 07:24:48;;;;;;;72.68;29.00;;;7.50;99.90;;;;;;5022357;28;20472;-83
2020/12/16 07:27:25;;;;;;;73.70;28.70;;;7.40;99.90;;;;;;5039946;28;20048;-82
2020/12/16 07:29:58;;;;;;;70.82;28.75;;;7.40;99.90;;;;;;5040301;28;20036;-84
2020/12/16 07:32:27;;;;;;;80.55;30.23;;;7.30;99.90;;;;;;5036198;28;20064;-85
2020/12/16 07:34:59;;;;;;;83.68;30.42;;;7.30;99.90;;;;;;5017494;28;20037;-84
2020/12/16 07:37:30;;;;;;;76.88;31.98;;;7.20;99.90;;;;;;5038992;28;20045;-84
2020/12/16 07:40:10;;;;;;;69.03;30.88;;;7.30;99.90;;;;;;5043840;28;20029;-84
2020/12/16 07:42:37;;;;;;;81.97;32.83;;;7.30;99.90;;;;;;5060596;28;20145;-84
2020/12/16 07:45:09;;;;;;;80.38;32.33;;;7.30;99.90;;;;;;5040713;28;20436;-83
2020/12/16 07:47:35;;;;;;;79.68;32.67;;;7.30;99.90;;;;;;5042186;28;20127;-84
2020/12/16 07:50:01;;;;;;;82.25;33.72;;;7.20;99.90;;;;;;5038411;28;20021;-83
2020/12/16 07:52:30;;;;;;;79.82;32.72;;;7.20;99.90;;;;;;5045301;28;20061;-83
2020/12/16 07:54:57;;;;;;;87.18;35.38;;;7.20;99.90;;;;;;5059791;28;20035;-82
2020/12/16 07:57:32;;;;;;;96.30;37.70;;;7.20;99.90;;;;;;5041937;28;20028;-82
2020/12/16 07:59:57;;;;;;;99.13;37.30;;;7.10;99.90;;;;;;5056403;28;20020;-83
2020/12/16 08:02:23;;;;;;;90.60;36.83;;;7.10;99.90;;;;;;5063359;28;20032;-83
2020/12/16 08:05:03;;;;;;;95.90;38.60;;;7.00;99.90;;;;;;5061954;28;20051;-83
2020/12/16 08:07:30;;;;;;;91.85;37.85;;;7.00;99.90;;;;;;5081098;28;20040;-83
2020/12/16 08:10:05;;;;;;;87.70;36.20;;;6.90;99.90;;;;;;5059157;28;20050;-83
2020/12/16 08:12:36;;;;;;;95.93;38.65;;;6.90;99.90;;;;;;5065281;28;20032;-82
2020/12/16 08:15:17;;;;;;;91.55;36.10;;;6.90;99.90;;;;;;5080464;28;20013;-83
2020/12/16 08:17:45;;;;;;;87.05;36.80;;;6.80;99.90;;;;;;5065522;28;20115;-83
2020/12/16 08:20:11;;;;;;;85.65;35.90;;;6.70;99.90;;;;;;5081184;28;20032;-83
2020/12/16 08:22:37;;;;;;;98.30;36.20;;;6.70;99.90;;;;;;5063420;28;20050;-83
2020/12/16 08:25:13;;;;;;;104.40;37.42;;;6.60;99.90;;;;;;5068501;28;20036;-83
2020/12/16 08:27:48;;;;;;;96.03;35.20;;;6.50;99.90;;;;;;5078396;28;20039;-83
2020/12/16 08:30:23;;;;;;;98.13;36.00;;;6.40;99.90;;;;;;5083576;28;20030;-84
2020/12/16 08:33:06;;;;;;;98.88;33.50;;;6.30;99.90;;;;;;5075672;28;20027;-83
2020/12/16 08:35:38;;;;;;;110.20;30.10;;;6.10;99.90;;;;;;5063876;28;20050;-83
2020/12/16 08:38:09;;;;;;;93.53;29.92;;;6.00;99.90;;;;;;5073458;28;20051;-83
2020/12/16 08:40:39;;;;;;;;;;;5.90;99.90;;;;;;5062657;28;20020;-84
2020/12/16 08:43:30;;;;;;;83.90;27.77;;;5.90;99.90;;;;;;5081110;28;19951;-81
2020/12/16 08:46:14;;;;;;;103.85;28.13;;;5.80;99.90;;;;;;5076366;28;20023;-81
2020/12/16 08:48:40;;;;;;;94.03;27.38;;;5.80;99.90;;;;;;5077511;28;20091;-81
2020/12/16 08:51:07;;;;;;;98.10;26.85;;;5.80;99.90;;;;;;5080896;28;20071;-81
2020/12/16 08:54:04;;;;;;;107.65;28.13;;;5.70;99.90;;;;;;5097282;28;20185;-82
2020/12/16 08:56:31;;;;;;;76.38;26.20;;;5.70;99.90;;;;;;4983763;28;20061;-82
2020/12/16 08:59:27;;;;;;;90.32;28.83;;;5.70;99.90;;;;;;4982788;28;20025;-81
2020/12/16 09:02:03;;;;;;;90.50;25.83;;;5.70;99.90;;;;;;4926007;28;20173;-83
2020/12/16 09:04:43;;;;;;;73.13;25.63;;;5.70;99.90;;;;;;4941385;28;20038;-82
2020/12/16 09:07:14;;;;;;;82.05;25.33;;;5.70;99.90;;;;;;4924223;28;20118;-82
2020/12/16 09:09:51;;;;;;;80.80;24.90;;;5.60;99.90;;;;;;4940376;28;20035;-83
2020/12/16 09:12:18;;;;;;;88.95;27.48;;;5.60;99.90;;;;;;4941981;28;20057;-82
2020/12/16 09:14:59;;;;;;;90.43;25.63;;;5.60;99.90;;;;;;4925148;28;20098;-84
2020/12/16 09:17:26;;;;;;;87.68;27.52;;;5.50;99.90;;;;;;4938742;28;20031;-82
2020/12/16 09:19:53;;;;;;;74.63;25.52;;;5.60;99.90;;;;;;4942258;28;20087;-83
2020/12/16 09:22:23;;;;;;;76.53;28.00;;;5.60;99.90;;;;;;4942508;28;21531;-83
2020/12/16 09:24:49;;;;;;;78.63;27.80;;;5.60;99.90;;;;;;4929791;28;20078;-83
2020/12/16 09:27:14;;;;;;;77.47;26.95;;;5.70;99.90;;;;;;4926992;28;20054;-82
2020/12/16 09:29:45;;;;;;;68.25;29.33;;;5.70;99.90;;;;;;4942419;28;20075;-83
2020/12/16 09:32:20;;;;;;;69.30;28.20;;;5.70;99.90;;;;;;4957713;28;20200;-82
2020/12/16 09:34:49;;;;;;;83.30;25.80;;;5.70;99.90;;;;;;5031407;28;20128;-83
2020/12/16 09:37:30;;;;;;;87.32;26.77;;;5.80;99.90;;;;;;5038596;28;20047;-82
2020/12/16 09:40:14;;;;;;;110.88;31.83;;;5.80;99.90;;;;;;5085263;28;20040;-83
2020/12/16 09:42:51;;;;;;;71.15;26.90;;;5.90;99.90;;;;;;5078077;28;20089;-83
2020/12/16 09:45:21;;;;;;;75.88;30.00;;;5.90;99.90;;;;;;5077360;28;20035;-83
2020/12/16 09:47:51;;;;;;;87.93;28.95;;;6.00;99.90;;;;;;5067265;28;20127;-83
2020/12/16 09:50:23;;;;;;;73.20;29.52;;;6.10;99.90;;;;;;5076789;28;20027;-82
2020/12/16 09:52:59;;;;;;;82.70;28.60;;;6.20;99.90;;;;;;5074125;28;20051;-82
2020/12/16 09:55:28;;;;;;;66.30;30.27;;;6.20;99.90;;;;;;5076073;28;20020;-82
2020/12/16 09:58:02;;;;;;;75.82;27.08;;;6.20;99.90;;;;;;5070862;28;20039;-82
2020/12/16 10:00:28;;;;;;;106.90;28.95;;;6.20;99.90;;;;;;5074446;28;20053;-83
2020/12/16 10:02:56;;;;;;;82.60;30.15;;;6.20;99.90;;;;;;5092395;28;20031;-82
2020/12/16 10:05:23;;;;;;;102.75;30.77;;;6.30;99.90;;;;;;5048853;28;20084;-83
2020/12/16 10:07:48;;;;;;;126.97;34.42;;;6.20;99.90;;;;;;5034567;28;20143;-82
2020/12/16 10:10:14;;;;;;;89.60;32.05;;;6.20;99.90;;;;;;5032908;28;20131;-83
2020/12/16 10:12:40;;;;;;;90.03;34.35;;;6.20;99.90;;;;;;5053859;28;20154;-83
2020/12/16 10:15:05;;;;;;;117.90;36.58;;;6.30;99.90;;;;;;5037607;28;21458;-83
2020/12/16 10:17:31;;;;;;;140.07;36.50;;;6.30;99.90;;;;;;5055006;28;20151;-83
2020/12/16 10:19:59;;;;;;;103.95;35.20;;;6.40;99.90;;;;;;5039811;28;20619;-83
2020/12/16 10:22:24;;;;;;;117.18;33.70;;;6.40;99.90;;;;;;5039452;28;20028;-83
2020/12/16 10:24:50;;;;;;;107.93;35.67;;;6.40;99.90;;;;;;5057892;28;20044;-82
2020/12/16 10:27:18;;;;;;;129.77;37.58;;;6.50;99.90;;;;;;5053310;28;20471;-83
2020/12/16 10:29:43;;;;;;;121.60;38.47;;;6.60;99.90;;;;;;5037343;28;20052;-83
2020/12/16 10:32:09;;;;;;;104.30;36.58;;;6.70;99.90;;;;;;5039988;28;20063;-82
2020/12/16 10:34:35;;;;;;;127.60;38.58;;;6.70;99.90;;;;;;5057095;28;20025;-83
2020/12/16 10:37:01;;;;;;;123.68;39.55;;;6.80;99.90;;;;;;5082448;28;20055;-83
2020/12/16 10:39:27;;;;;;;101.80;39.25;;;6.80;99.90;;;;;;5091425;28;20020;-84
2020/12/16 10:42:00;;;;;;;111.03;41.60;;;6.90;99.90;;;;;;5108635;28;20079;-83
2020/12/16 10:44:27;;;;;;;101.75;39.63;;;6.90;99.90;;;;;;5110593;27;20042;-83
2020/12/16 10:46:56;;;;;;;108.03;40.45;;;7.00;99.90;;;;;;5106507;28;20035;-84
2020/12/16 10:49:27;;;;;;;93.35;38.17;;;7.00;99.90;;;;;;5109261;28;20091;-84
2020/12/16 10:51:53;;;;;;;95.38;39.17;;;7.00;99.90;;;;;;5067118;28;20062;-82
2020/12/16 10:54:21;;;;;;;87.65;39.50;;;7.00;99.90;;;;;;5041753;28;20065;-82
2020/12/16 10:56:54;;;;;;;103.70;39.28;;;7.10;99.90;;;;;;5060202;28;20058;-82
2020/12/16 10:59:20;;;;;;;95.13;38.70;;;7.10;99.90;;;;;;5043174;28;20033;-82
2020/12/16 11:01:46;;;;;;;88.43;39.55;;;7.10;99.90;;;;;;5054909;28;20095;-82
2020/12/16 11:04:12;;;;;;;92.75;39.88;;;7.30;99.90;;;;;;5036592;28;20155;-82
2020/12/16 11:06:43;;;;;;;93.88;38.45;;;7.30;99.90;;;;;;5037575;28;20432;-82
2020/12/16 11:09:10;;;;;;;85.07;40.00;;;7.40;99.90;;;;;;5018381;28;20128;-82
2020/12/16 11:11:48;;;;;;;88.20;37.00;;;7.40;99.90;;;;;;5002742;28;20421;-83
2020/12/16 11:14:15;;;;;;;84.53;38.67;;;7.50;99.90;;;;;;5015848;28;20124;-82
2020/12/16 11:16:41;;;;;;;92.85;39.17;;;7.50;99.90;;;;;;5017967;28;20060;-83
2020/12/16 11:19:08;;;;;;;112.57;52.17;;;7.60;99.90;;;;;;5017265;28;20497;-82
2020/12/16 11:21:45;;;;;;;84.10;36.08;;;7.60;99.90;;;;;;5019107;28;20032;-82
2020/12/16 11:24:15;;;;;;;86.10;37.30;;;7.60;99.90;;;;;;5075915;28;20403;-81
2020/12/16 11:26:44;;;;;;;69.45;35.17;;;7.60;99.90;;;;;;5073937;28;20031;-81
2020/12/16 11:29:10;;;;;;;88.50;36.70;;;7.70;99.90;;;;;;5074901;28;20036;-81
2020/12/16 11:31:40;;;;;;;80.15;34.15;;;7.80;99.90;;;;;;5073766;28;20032;-81
2020/12/16 11:34:08;;;;;;;77.93;32.70;;;7.80;99.90;;;;;;5079366;28;20521;-81
2020/12/16 11:36:43;;;;;;;74.97;35.08;;;7.70;99.90;;;;;;5081906;28;20043;-82
2020/12/16 11:39:11;;;;;;;68.50;33.72;;;7.70;99.90;;;;;;5078422;28;20498;-81
2020/12/16 11:41:43;;;;;;;73.55;34.97;;;7.70;99.90;;;;;;5098917;27;20129;-82
2020/12/16 11:44:09;;;;;;;70.57;33.65;;;7.80;99.90;;;;;;5079417;28;20036;-82
2020/12/16 11:46:34;;;;;;;66.22;32.08;;;7.80;99.90;;;;;;5078853;28;20042;-82
2020/12/16 11:49:05;;;;;;;68.75;33.55;;;7.70;99.90;;;;;;5078377;28;20064;-82
2020/12/16 11:51:31;;;;;;;72.35;35.20;;;7.60;99.90;;;;;;5081475;28;20035;-82
2020/12/16 11:53:57;;;;;;;66.00;33.58;;;7.70;99.90;;;;;;5075792;28;20496;-81
2020/12/16 11:56:23;;;;;;;65.25;34.47;;;7.80;99.90;;;;;;5077332;28;20392;-82
2020/12/16 11:58:49;;;;;;;76.30;33.65;;;7.70;99.90;;;;;;5079106;28;20032;-82
2020/12/16 12:01:19;;;;;;;73.65;35.72;;;7.80;99.90;;;;;;5076867;28;20031;-82
2020/12/16 12:03:46;;;;;;;69.95;33.40;;;7.90;99.90;;;;;;5076676;28;20062;-83
2020/12/16 12:06:16;;;;;;;63.30;33.65;;;7.90;99.90;;;;;;5077643;28;20107;-82
2020/12/16 12:08:42;;;;;;;75.00;35.10;;;7.80;99.90;;;;;;5102124;27;20054;-81
2020/12/16 12:11:15;;;;;;;69.40;36.75;;;7.70;99.90;;;;;;5098655;28;20063;-82
2020/12/16 12:13:42;;;;;;;73.85;34.67;;;7.70;99.90;;;;;;5080571;28;20037;-82
2020/12/16 12:16:09;;;;;;;66.95;34.95;;;7.70;99.90;;;;;;5081967;28;20069;-81
2020/12/16 12:18:35;;;;;;;71.43;36.40;;;7.80;99.90;;;;;;5077987;28;20031;-82
2020/12/16 12:21:01;;;;;;;61.90;32.47;;;7.80;99.90;;;;;;5091282;27;20034;-81
2020/12/16 12:23:27;;;;;;;61.55;32.42;;;7.90;99.90;;;;;;5080745;28;20431;-82
2020/12/16 12:25:54;;;;;;;67.65;33.63;;;7.90;99.90;;;;;;5079990;28;20511;-81
2020/12/16 12:28:20;;;;;;;70.63;35.60;;;7.80;99.90;;;;;;5082405;28;20054;-81
2020/12/16 12:30:46;;;;;;;67.53;33.72;;;7.80;99.90;;;;;;5082475;28;20030;-82
2020/12/16 12:33:11;;;;;;;63.72;33.78;;;7.80;99.90;;;;;;5100005;28;20106;-81
2020/12/16 12:35:37;;;;;;;69.50;33.67;;;7.90;99.90;;;;;;5081271;28;20023;-82
2020/12/16 12:38:03;;;;;;;67.07;34.95;;;7.90;99.90;;;;;;5023219;28;20060;-82
2020/12/16 12:40:29;;;;;;;69.35;34.80;;;8.00;99.90;;;;;;5035947;28;20029;-82
2020/12/16 12:42:54;;;;;;;61.97;33.13;;;7.90;99.90;;;;;;5036307;28;20049;-82
2020/12/16 12:45:20;;;;;;;64.65;32.83;;;8.00;99.90;;;;;;5040341;28;20544;-83